Time;durP1;ratioP1;P1;durP2;ratioP2;P2;SDS_P1;SDS_P2;PMS_P1;PMS_P2;Temp;Humidity;BMP_temperature;BMP_pressure;BME280_temperature;BME280_humidity;BME280_pressure;Samples;Min_cycle;Max_cycle;Signal;HPM_P1;HPM_P2
2022/09/27 00:00:46;;;;;;;;;;;;;;;12.34;100.00;99014.47;3057328;19;19978;-50
2022/09/27 00:01:48;;;;;;;;;;;;;;;12.32;100.00;99019.09;3057576;19;19926;-50
2022/09/27 00:02:52;;;;;;;;;;;;;;;12.31;100.00;99013.94;3056357;19;19919;-50
2022/09/27 00:03:54;;;;;;;;;;;;;;;12.31;100.00;99017.44;3057745;19;19930;-51
2022/09/27 00:04:59;;;;;;;;;;;;;;;12.31;100.00;99017.44;3057636;19;19931;-50
2022/09/27 00:06:12;;;;;;;;;;;;;;;12.31;100.00;99012.09;3057530;19;19915;-50
2022/09/27 00:07:16;;;;;;;;;;;;;;;12.31;100.00;99012.09;3056342;19;19935;-50
2022/09/27 00:08:18;;;;;;;;;;;;;;;12.29;100.00;99011.38;3056659;19;19978;-50
2022/09/27 00:09:23;;;;;;;;;;;;;;;12.30;100.00;99010.41;3056691;19;19936;-50
2022/09/27 00:10:25;;;;;;;;;;;;;;;12.31;100.00;99009.41;3057468;19;20007;-50
2022/09/27 00:11:30;;;;;;;;;;;;;;;12.32;100.00;99003.06;3056129;19;20284;-50
2022/09/27 00:12:32;;;;;;;;;;;;;;;12.34;100.00;99000.25;3057326;19;20047;-50
2022/09/27 00:13:36;;;;;;;;;;;;;;;12.36;100.00;99001.78;3056838;19;19939;-50
2022/09/27 00:14:38;;;;;;;;;;;;;;;12.37;100.00;98991.94;3057339;19;20343;-50
2022/09/27 00:15:43;;;;;;;;;;;;;;;12.39;100.00;98984.63;3057107;19;19974;-50
2022/09/27 00:16:45;;;;;;;;;;;;;;;12.40;100.00;98989.00;3057558;19;20547;-50
2022/09/27 00:17:50;;;;;;;;;;;;;;;12.39;100.00;98982.78;3056218;19;19927;-50
2022/09/27 00:18:52;;;;;;;;;;;;;;;12.40;100.00;98978.28;3056609;19;19914;-50
2022/09/27 00:19:57;;;;;;;;;;;;;;;12.39;100.00;98977.44;3056997;19;19926;-50
2022/09/27 00:21:09;;;;;;;;;;;;;;;12.40;100.00;98973.78;3057359;19;19940;-50
2022/09/27 00:22:14;;;;;;;;;;;;;;;12.42;100.00;98971.81;3057147;19;19919;-51
2022/09/27 00:23:16;;;;;;;;;;;;;;;12.41;100.00;98980.81;3057660;19;19919;-50
2022/09/27 00:24:21;;;;;;;;;;;;;;;12.43;100.00;98978.84;3057023;19;19923;-50
2022/09/27 00:25:23;;;;;;;;;;;;;;;12.43;100.00;98978.84;3057724;19;20004;-49
2022/09/27 00:26:28;;;;;;;;;;;;;;;12.44;100.00;98980.50;3056802;19;20342;-50
2022/09/27 00:27:30;;;;;;;;;;;;;;;12.46;100.00;98977.69;3057484;19;20648;-51
2022/09/27 00:28:34;;;;;;;;;;;;;;;12.48;100.00;98971.22;3056831;19;19926;-51
2022/09/27 00:29:36;;;;;;;;;;;;;;;12.49;100.00;98977.41;3056429;19;19925;-51
2022/09/27 00:30:43;;;;;;;;;;;;;;;12.50;100.00;98977.28;3056031;19;19914;-50
2022/09/27 00:31:45;;;;;;;;;;;;;;;12.50;100.00;98969.25;3055629;19;19930;-50
2022/09/27 00:32:51;;;;;;;;;;;;;;;12.50;100.00;98968.41;3056220;19;19915;-50
2022/09/27 00:33:53;;;;;;;;;;;;;;;12.50;100.00;98969.25;3056121;19;19919;-50
2022/09/27 00:34:58;;;;;;;;;;;;;;;12.50;100.00;98965.72;3056120;19;20003;-50
2022/09/27 00:36:04;;;;;;;;;;;;;;;12.49;100.00;98967.56;3056138;19;20319;-50
2022/09/27 00:37:10;;;;;;;;;;;;;;;12.50;100.00;98974.59;3057622;19;19923;-50
2022/09/27 00:38:12;;;;;;;;;;;;;;;12.51;100.00;98965.59;3056799;19;20254;-50
2022/09/27 00:39:17;;;;;;;;;;;;;;;12.51;100.00;98968.28;3056792;19;19923;-50
2022/09/27 00:40:22;;;;;;;;;;;;;;;12.50;100.00;98969.25;3057306;19;19978;-50
2022/09/27 00:41:29;;;;;;;;;;;;;;;12.49;100.00;98966.72;3056320;19;19919;-50
2022/09/27 00:42:31;;;;;;;;;;;;;;;12.46;100.00;98962.50;3055845;19;19927;-50
2022/09/27 00:43:52;;;;;;;;;;;;;;;12.43;100.00;98957.44;3056087;19;20198;-50
2022/09/27 00:44:57;;;;;;;;;;;;;;;12.41;100.00;98964.78;3056625;19;20465;-50
2022/09/27 00:46:02;;;;;;;;;;;;;;;12.39;100.00;98965.91;3056075;19;19915;-50
2022/09/27 00:47:09;;;;;;;;;;;;;;;12.36;100.00;98960.81;3055870;19;19923;-50
2022/09/27 00:48:13;;;;;;;;;;;;;;;12.34;100.00;98963.63;3056318;19;20369;-50
2022/09/27 00:49:15;;;;;;;;;;;;;;;12.30;100.00;98961.41;3055745;19;19949;-50
2022/09/27 00:50:29;;;;;;;;;;;;;;;12.26;100.00;98963.53;3056167;19;20389;-50
2022/09/27 00:51:31;;;;;;;;;;;;;;;12.24;100.00;98960.13;3056783;19;20265;-49
2022/09/27 00:52:47;;;;;;;;;;;;;;;12.20;100.00;98954.22;3056819;19;20153;-49
2022/09/27 00:53:50;;;;;;;;;;;;;;;12.15;100.00;98964.50;3055866;19;20001;-50
2022/09/27 00:54:59;;;;;;;;;;;;;;;12.13;100.00;98962.97;3055980;19;19990;-50
2022/09/27 00:56:02;;;;;;;;;;;;;;;12.08;100.00;98967.88;3055927;19;20248;-51
2022/09/27 00:57:07;;;;;;;;;;;;;;;12.03;100.00;98959.44;3055530;19;20250;-50
2022/09/27 00:58:08;;;;;;;;;;;;;;;12.00;100.00;98965.91;3056092;19;19919;-50
2022/09/27 00:59:14;;;;;;;;;;;;;;;11.95;100.00;98962.84;3055355;19;19956;-50
2022/09/27 01:00:17;;;;;;;;;;;;;;;11.90;100.00;98960.56;3056877;19;19922;-50
2022/09/27 01:01:21;;;;;;;;;;;;;;;11.86;100.00;98964.50;3055481;19;20618;-49
2022/09/27 01:02:23;;;;;;;;;;;;;;;11.84;100.00;98966.47;3056154;19;20027;-50
2022/09/27 01:03:31;;;;;;;;;;;;;;;11.78;100.00;98961.69;3055720;19;19919;-49
2022/09/27 01:04:33;;;;;;;;;;;;;;;11.73;100.00;98963.88;3056837;19;19921;-49
2022/09/27 01:05:38;;;;;;;;;;;;;;;11.70;100.00;98963.34;3055738;19;19911;-50
2022/09/27 01:06:40;;;;;;;;;;;;;;;11.64;100.00;98967.41;3056286;19;19934;-50
2022/09/27 01:07:44;;;;;;;;;;;;;;;11.61;100.00;98970.34;3056661;19;19946;-50
2022/09/27 01:08:46;;;;;;;;;;;;;;;11.54;100.00;98966.53;3056341;19;19922;-50
2022/09/27 01:09:51;;;;;;;;;;;;;;;11.49;100.00;98969.63;3055564;19;19947;-50
2022/09/27 01:11:09;;;;;;;;;;;;;;;11.44;100.00;98961.19;3056099;19;19918;-50
2022/09/27 01:12:46;;;;;;;;;;;;;;;11.39;100.00;98962.56;3054789;19;19919;-50
2022/09/27 01:13:55;;;;;;;;;;;;;;;11.32;100.00;98962.28;3053409;19;20350;-50
2022/09/27 01:15:02;;;;;;;;;;;;;;;11.29;100.00;98964.38;3054917;19;19927;-50
2022/09/27 01:16:08;;;;;;;;;;;;;;;11.26;100.00;98959.28;3055397;19;20477;-49
2022/09/27 01:17:12;;;;;;;;;;;;;;;11.22;100.00;98952.56;3056140;19;19915;-50
2022/09/27 01:18:16;;;;;;;;;;;;;;;11.16;100.00;98954.78;3055412;19;19911;-50
2022/09/27 01:19:24;;;;;;;;;;;;;;;11.13;100.00;98944.34;3055303;19;20750;-50
2022/09/27 01:20:44;;;;;;;;;;;;;;;11.11;100.00;98948.97;3055438;19;19930;-50
2022/09/27 01:21:52;;;;;;;;;;;;;;;11.09;100.00;98942.97;3055987;19;19915;-50
2022/09/27 01:23:02;;;;;;;;;;;;;;;11.06;100.00;98951.22;3055943;19;19987;-50
2022/09/27 01:24:16;;;;;;;;;;;;;;;11.03;100.00;98940.81;3055247;19;19923;-50
2022/09/27 01:25:18;;;;;;;;;;;;;;;11.01;100.00;98944.59;3055756;19;19993;-49
2022/09/27 01:26:41;;;;;;;;;;;;;;;10.99;100.00;98938.56;3055345;19;19923;-50
2022/09/27 01:27:46;;;;;;;;;;;;;;;10.99;100.00;98944.72;3055981;19;19943;-50
2022/09/27 01:28:51;;;;;;;;;;;;;;;10.96;100.00;98929.00;3055150;19;20350;-50
2022/09/27 01:30:11;;;;;;;;;;;;;;;10.96;100.00;98937.00;3055677;19;19922;-50
2022/09/27 01:31:24;;;;;;;;;;;;;;;10.95;100.00;98932.66;3056238;19;19915;-50
2022/09/27 01:32:29;;;;;;;;;;;;;;;10.96;100.00;98925.50;3055171;19;19994;-49
2022/09/27 01:33:50;;;;;;;;;;;;;;;10.95;100.00;98929.97;3055819;19;19930;-50
2022/09/27 01:35:27;;;;;;;;;;;;;;;10.98;100.00;98927.06;3055558;19;19918;-50
2022/09/27 01:36:48;;;;;;;;;;;;;;;11.02;100.00;98925.78;3054415;19;19929;-50
2022/09/27 01:38:12;;;;;;;;;;;;;;;11.06;100.00;98921.03;3055972;19;20304;-50
2022/09/27 01:39:19;;;;;;;;;;;;;;;11.09;100.00;98916.28;3055366;19;19911;-50
2022/09/27 01:40:59;;;;;;;;;;;;;;;11.14;100.00;98913.16;3054365;19;19945;-51
2022/09/27 01:42:23;;;;;;;;;;;;;;;11.18;100.00;98902.09;3055314;19;20043;-50
2022/09/27 01:43:51;;;;;;;;;;;;;;;11.23;100.00;98909.66;3055443;19;19923;-50
2022/09/27 01:44:59;;;;;;;;;;;;;;;11.29;100.00;98902.94;3054999;19;20862;-50
2022/09/27 01:46:29;;;;;;;;;;;;;;;11.31;100.00;98901.00;3055369;19;20252;-50
2022/09/27 01:47:55;;;;;;;;;;;;;;;11.36;100.00;98901.41;3055534;19;19919;-49
2022/09/27 01:49:33;;;;;;;;;;;;;;;11.40;100.00;98898.34;3055033;19;19919;-50
2022/09/27 01:50:39;;;;;;;;;;;;;;;11.44;100.00;98904.25;3055462;19;19932;-50
2022/09/27 01:51:49;;;;;;;;;;;;;;;11.46;100.00;98896.94;3055260;19;19930;-50
2022/09/27 01:52:53;;;;;;;;;;;;;;;11.49;100.00;98893.97;3054969;19;20289;-50
2022/09/27 01:54:01;;;;;;;;;;;;;;;11.51;100.00;98894.69;3055302;19;19919;-50
2022/09/27 01:55:03;;;;;;;;;;;;;;;11.53;100.00;98898.06;3054939;19;20258;-49
2022/09/27 01:56:34;;;;;;;;;;;;;;;11.55;100.00;98896.09;3055447;19;19930;-50
2022/09/27 01:57:40;;;;;;;;;;;;;;;11.57;100.00;98893.31;3055058;19;19964;-49
2022/09/27 01:58:52;;;;;;;;;;;;;;;11.57;100.00;98888.81;3055431;19;20280;-50
2022/09/27 01:59:58;;;;;;;;;;;;;;;11.59;100.00;98886.84;3055191;19;19986;-50
2022/09/27 02:01:18;;;;;;;;;;;;;;;11.60;100.00;98883.16;3055601;19;20364;-50
2022/09/27 02:02:23;;;;;;;;;;;;;;;11.61;100.00;98889.34;3055121;19;19923;-50
2022/09/27 02:03:48;;;;;;;;;;;;;;;11.63;100.00;98896.25;3055186;19;19995;-50
2022/09/27 02:05:18;;;;;;;;;;;;;;;11.63;100.00;98898.91;3055443;19;19929;-50
2022/09/27 02:06:29;;;;;;;;;;;;;;;11.64;100.00;98891.75;3055299;19;19914;-50
2022/09/27 02:08:01;;;;;;;;;;;;;;;11.64;100.00;98891.75;3055155;19;19934;-51
2022/09/27 02:09:08;;;;;;;;;;;;;;;11.63;100.00;98890.06;3054706;19;19919;-49
2022/09/27 02:10:29;;;;;;;;;;;;;;;11.64;100.00;98889.91;3055090;19;19926;-49
2022/09/27 02:11:31;;;;;;;;;;;;;;;11.64;100.00;98892.59;3055297;19;20422;-50
2022/09/27 02:12:51;;;;;;;;;;;;;;;11.64;100.00;98891.75;3054498;19;19926;-50
2022/09/27 02:13:55;;;;;;;;;;;;;;;11.60;100.00;98883.16;3054832;19;19986;-50
2022/09/27 02:15:18;;;;;;;;;;;;;;;11.58;100.00;98887.81;3055285;19;19926;-49
2022/09/27 02:16:48;;;;;;;;;;;;;;;11.55;100.00;98885.44;3054902;19;19930;-50
2022/09/27 02:17:58;;;;;;;;;;;;;;;11.53;100.00;98882.03;3055071;19;19959;-50
2022/09/27 02:19:00;;;;;;;;;;;;;;;11.53;100.00;98882.88;3055060;19;19921;-49
2022/09/27 02:20:11;;;;;;;;;;;;;;;11.54;100.00;98881.91;3055009;19;20378;-50
2022/09/27 02:21:19;;;;;;;;;;;;;;;11.55;100.00;98890.75;3055276;19;19934;-50
2022/09/27 02:22:42;;;;;;;;;;;;;;;11.55;100.00;98890.75;3054758;19;20030;-50
2022/09/27 02:23:44;;;;;;;;;;;;;;;11.58;100.00;98885.16;3055415;19;19927;-50
2022/09/27 02:24:50;;;;;;;;;;;;;;;11.60;100.00;98880.47;3054699;19;19939;-50
2022/09/27 02:25:54;;;;;;;;;;;;;;;11.61;100.00;98874.16;3057785;19;19923;-49
2022/09/27 02:27:02;;;;;;;;;;;;;;;11.64;100.00;98879.22;3057712;19;19930;-50
2022/09/27 02:28:26;;;;;;;;;;;;;;;11.65;100.00;98872.91;3058258;19;19922;-50
2022/09/27 02:29:31;;;;;;;;;;;;;;;11.67;100.00;98873.63;3058187;19;20001;-50
2022/09/27 02:30:36;;;;;;;;;;;;;;;11.70;100.00;98873.34;3058098;19;20034;-52
2022/09/27 02:31:50;;;;;;;;;;;;;;;11.70;100.00;98868.00;3058079;19;19922;-50
2022/09/27 02:32:54;;;;;;;;;;;;;;;11.71;100.00;98864.31;3057671;19;20630;-50
2022/09/27 02:34:03;;;;;;;;;;;;;;;11.73;100.00;98859.69;3058270;19;19923;-50
2022/09/27 02:35:19;;;;;;;;;;;;;;;11.74;100.00;98863.19;3057772;19;19930;-51
2022/09/27 02:36:21;;;;;;;;;;;;;;;11.75;100.00;98857.75;3058043;19;19919;-52
2022/09/27 02:37:25;;;;;;;;;;;;;;;11.76;100.00;98863.94;3057682;19;19962;-51
2022/09/27 02:38:27;;;;;;;;;;;;;;;11.77;100.00;98857.59;3057910;19;19974;-49
2022/09/27 02:39:33;;;;;;;;;;;;;;;11.76;100.00;98861.25;3057635;19;19942;-50
2022/09/27 02:40:48;;;;;;;;;;;;;;;11.74;100.00;98864.03;3057616;19;19932;-50
2022/09/27 02:41:50;;;;;;;;;;;;;;;11.74;100.00;98868.53;3057752;19;19918;-50
2022/09/27 02:42:55;;;;;;;;;;;;;;;11.74;100.00;98864.03;3058232;19;19943;-50
2022/09/27 02:44:11;;;;;;;;;;;;;;;11.76;100.00;98862.09;3057788;19;19990;-50
2022/09/27 02:45:13;;;;;;;;;;;;;;;11.80;100.00;98857.31;3057452;19;19923;-50
2022/09/27 02:46:20;;;;;;;;;;;;;;;11.82;100.00;98864.22;3057908;19;19923;-50
2022/09/27 02:47:28;;;;;;;;;;;;;;;11.86;100.00;98868.28;3057667;19;19919;-50
2022/09/27 02:48:42;;;;;;;;;;;;;;;11.89;100.00;98865.34;3057864;19;19923;-50
2022/09/27 02:50:05;;;;;;;;;;;;;;;11.94;100.00;98864.06;3057453;19;19934;-49
2022/09/27 02:51:34;;;;;;;;;;;;;;;12.00;100.00;98866.16;3057919;19;19991;-50
2022/09/27 02:52:53;;;;;;;;;;;;;;;12.05;100.00;98866.59;3057651;19;19915;-51
2022/09/27 02:54:19;;;;;;;;;;;;;;;12.09;100.00;98866.13;3056383;19;19938;-50
2022/09/27 02:56:12;;;;;;;;;;;;;;;12.15;100.00;98867.41;3058157;19;19923;-50
2022/09/27 02:57:54;;;;;;;;;;;;;;;12.19;100.00;98863.47;3058587;19;19927;-51
2022/09/27 02:59:08;;;;;;;;;;;;;;;12.22;100.00;98858.66;3057867;19;19944;-50
2022/09/27 03:00:32;;;;;;;;;;;;;;;12.26;100.00;98867.22;3057558;19;19923;-50
2022/09/27 03:02:01;;;;;;;;;;;;;;;12.31;100.00;98867.66;3057635;19;19918;-52
2022/09/27 03:03:19;;;;;;;;;;;;;;;12.34;100.00;98872.69;3057578;19;20061;-51
2022/09/27 03:04:42;;;;;;;;;;;;;;;12.37;100.00;98877.75;3057166;19;20402;-50
2022/09/27 03:05:45;;;;;;;;;;;;;;;12.40;100.00;98866.78;3057709;19;19923;-50
2022/09/27 03:06:50;;;;;;;;;;;;;;;12.43;100.00;98874.53;3057275;19;19952;-51
2022/09/27 03:07:52;;;;;;;;;;;;;;;12.46;100.00;98865.34;3057425;19;19928;-50
2022/09/27 03:10:28;;;;;;;;;;;;;;;12.50;100.00;98862.22;3047432;19;19911;-51
2022/09/27 03:11:32;;;;;;;;;;;;;;;12.52;100.00;98860.25;3058592;19;19922;-50
2022/09/27 03:12:36;;;;;;;;;;;;;;;12.53;100.00;98861.94;3057425;19;19926;-52
2022/09/27 03:13:38;;;;;;;;;;;;;;;12.55;100.00;98865.31;3056564;19;20359;-50
2022/09/27 03:15:04;;;;;;;;;;;;;;;12.59;100.00;98864.03;3056913;19;20273;-51
2022/09/27 03:16:28;;;;;;;;;;;;;;;12.61;100.00;98855.84;3057411;19;19940;-50
2022/09/27 03:17:45;;;;;;;;;;;;;;;12.63;100.00;98862.75;3057145;19;19992;-51
2022/09/27 03:19:15;;;;;;;;;;;;;;;12.65;100.00;98870.63;3057108;19;20713;-51
2022/09/27 03:20:49;;;;;;;;;;;;;;;12.64;100.00;98871.63;3057982;19;19930;-51
2022/09/27 03:21:53;;;;;;;;;;;;;;;12.61;100.00;98870.06;3057006;19;20337;-50
2022/09/27 03:22:57;;;;;;;;;;;;;;;12.61;100.00;98874.59;3056896;19;19919;-51
2022/09/27 03:24:00;;;;;;;;;;;;;;;12.61;100.00;98875.44;3056790;19;19925;-51
2022/09/27 03:25:06;;;;;;;;;;;;;;;12.59;100.00;98866.69;3057153;19;19973;-50
2022/09/27 03:26:08;;;;;;;;;;;;;;;12.58;100.00;98864.16;3056121;19;19914;-51
2022/09/27 03:27:16;;;;;;;;;;;;;;;12.58;100.00;98870.38;3058624;19;19919;-50
2022/09/27 03:28:18;;;;;;;;;;;;;;;12.57;100.00;98879.38;3057691;19;19923;-51
2022/09/27 03:29:24;;;;;;;;;;;;;;;12.56;100.00;98868.81;3057459;19;19918;-50
2022/09/27 03:30:37;;;;;;;;;;;;;;;12.56;100.00;98879.53;3057719;19;19922;-51
2022/09/27 03:31:39;;;;;;;;;;;;;;;12.58;100.00;98873.03;3057204;19;20017;-51
2022/09/27 03:33:02;;;;;;;;;;;;;;;12.59;100.00;98872.06;3057424;19;19926;-50
2022/09/27 03:34:10;;;;;;;;;;;;;;;12.61;100.00;98867.41;3056918;19;19919;-50
2022/09/27 03:35:14;;;;;;;;;;;;;;;12.60;100.00;98865.72;3056619;19;19918;-49
2022/09/27 03:36:19;;;;;;;;;;;;;;;12.64;100.00;98866.28;3056789;19;19923;-53
2022/09/27 03:37:21;;;;;;;;;;;;;;;12.65;100.00;98865.28;3054896;19;19915;-50
2022/09/27 03:38:26;;;;;;;;;;;;;;;12.67;100.00;98867.81;3056627;19;20358;-50
2022/09/27 03:39:28;;;;;;;;;;;;;;;12.67;100.00;98873.16;3057492;19;19934;-50
2022/09/27 03:40:32;;;;;;;;;;;;;;;12.67;100.00;98873.16;3056687;19;19955;-50
2022/09/27 03:41:34;;;;;;;;;;;;;;;12.59;100.00;98861.34;3057110;19;19937;-50
2022/09/27 03:42:40;;;;;;;;;;;;;;;12.68;100.00;98881.03;3056541;19;19918;-50
2022/09/27 03:43:47;;;;;;;;;;;;;;;12.70;100.00;98872.84;3056712;19;19948;-51
2022/09/27 03:44:52;;;;;;;;;;;;;;;12.69;100.00;98876.50;3056409;19;19923;-50
2022/09/27 03:45:54;;;;;;;;;;;;;;;12.68;100.00;98885.56;3056820;19;19998;-50
2022/09/27 03:46:59;;;;;;;;;;;;;;;12.67;100.00;98894.56;3056568;19;20028;-51
2022/09/27 03:48:01;;;;;;;;;;;;;;;12.66;100.00;98884.84;3056847;19;19943;-50
2022/09/27 03:49:05;;;;;;;;;;;;;;;12.65;100.00;98883.16;3057654;19;20138;-50
2022/09/27 03:50:08;;;;;;;;;;;;;;;12.62;100.00;98882.47;3057745;19;19922;-51
2022/09/27 03:51:13;;;;;;;;;;;;;;;12.62;100.00;98887.81;3056627;19;19919;-50
2022/09/27 03:52:15;;;;;;;;;;;;;;;12.59;100.00;98882.75;3057777;19;19999;-50
2022/09/27 03:53:20;;;;;;;;;;;;;;;12.53;100.00;98877.16;3057083;19;20550;-50
2022/09/27 03:54:24;;;;;;;;;;;;;;;12.57;100.00;98895.44;3057654;19;20091;-51
2022/09/27 03:55:26;;;;;;;;;;;;;;;12.53;100.00;98894.06;3056255;19;19923;-51
2022/09/27 03:56:30;;;;;;;;;;;;;;;12.52;100.00;98891.53;3057585;19;19926;-50
2022/09/27 03:57:33;;;;;;;;;;;;;;;12.51;100.00;98898.69;3056373;19;20306;-50
2022/09/27 03:58:38;;;;;;;;;;;;;;;12.51;100.00;98896.03;3056974;19;19942;-51
2022/09/27 03:59:40;;;;;;;;;;;;;;;12.48;100.00;98885.59;3056179;19;19918;-50
2022/09/27 04:01:19;;;;;;;;;;;;;;;12.48;100.00;98885.59;3056809;19;19919;-52
2022/09/27 04:02:27;;;;;;;;;;;;;;;12.48;100.00;98885.59;3056345;19;19918;-50
2022/09/27 04:03:50;;;;;;;;;;;;;;;12.48;100.00;98884.75;3053249;19;19930;-50
2022/09/27 04:05:05;;;;;;;;;;;;;;;12.48;100.00;98884.75;3056958;19;19923;-50
2022/09/27 04:06:11;;;;;;;;;;;;;;;12.49;100.00;98876.59;3056502;19;20421;-50
2022/09/27 04:07:16;;;;;;;;;;;;;;;12.48;100.00;98876.75;3056317;19;19935;-51
2022/09/27 04:08:22;;;;;;;;;;;;;;;12.48;100.00;98874.06;3057025;19;19923;-50
2022/09/27 04:09:24;;;;;;;;;;;;;;;12.48;100.00;98882.09;3055993;19;20255;-50
2022/09/27 04:10:35;;;;;;;;;;;;;;;12.48;100.00;98880.25;3055531;19;19923;-50
2022/09/27 04:11:37;;;;;;;;;;;;;;;12.48;100.00;98876.75;3056439;19;19922;-51
2022/09/27 04:12:42;;;;;;;;;;;;;;;12.46;100.00;98874.19;3056367;19;19918;-50
2022/09/27 04:13:44;;;;;;;;;;;;;;;12.46;100.00;98876.88;3056273;19;20350;-50
2022/09/27 04:14:49;;;;;;;;;;;;;;;12.47;100.00;98872.38;3055593;19;20027;-50
2022/09/27 04:16:23;;;;;;;;;;;;;;;12.47;100.00;98878.56;3054940;19;20322;-50
2022/09/27 04:17:41;;;;;;;;;;;;;;;12.48;100.00;98861.53;3054503;19;20353;-50
2022/09/27 04:19:14;;;;;;;;;;;;;;;12.48;100.00;98864.22;3055785;19;19929;-50
2022/09/27 04:20:39;;;;;;;;;;;;;;;12.48;100.00;98866.88;3055050;19;20261;-51
2022/09/27 04:21:44;;;;;;;;;;;;;;;12.49;100.00;98876.59;3054969;19;19931;-50
2022/09/27 04:22:50;;;;;;;;;;;;;;;12.50;100.00;98867.59;3055273;19;19922;-50
2022/09/27 04:23:52;;;;;;;;;;;;;;;12.51;100.00;98874.63;3055246;19;20034;-50
2022/09/27 04:24:59;;;;;;;;;;;;;;;12.52;100.00;98870.97;3055185;19;19918;-51
2022/09/27 04:26:12;;;;;;;;;;;;;;;12.53;100.00;98867.31;3055267;19;19923;-50
2022/09/27 04:27:23;;;;;;;;;;;;;;;12.55;100.00;98868.00;3055046;19;19951;-50
2022/09/27 04:28:29;;;;;;;;;;;;;;;12.56;100.00;98869.66;3054875;19;20031;-51
2022/09/27 04:29:31;;;;;;;;;;;;;;;12.58;100.00;98870.38;3054849;19;20054;-50
2022/09/27 04:30:50;;;;;;;;;;;;;;;12.60;100.00;98872.91;3054754;19;19915;-51
2022/09/27 04:32:11;;;;;;;;;;;;;;;12.60;100.00;98871.06;3054695;19;19922;-50
2022/09/27 04:33:36;;;;;;;;;;;;;;;12.64;100.00;98874.28;3054692;19;19915;-50
2022/09/27 04:37:37;;;;;;;;;;;;;;;12.69;100.00;98887.22;3057077;19;19926;-50
2022/09/27 04:38:39;;;;;;;;;;;;;;;12.70;100.00;98883.56;3056234;19;19951;-51
2022/09/27 04:39:44;;;;;;;;;;;;;;;12.71;100.00;98887.91;3056321;19;19923;-50
2022/09/27 04:40:47;;;;;;;;;;;;;;;12.72;100.00;98886.94;3056190;19;20339;-51
2022/09/27 04:41:53;;;;;;;;;;;;;;;12.73;100.00;98893.97;3056216;19;20572;-50
2022/09/27 04:42:55;;;;;;;;;;;;;;;12.73;100.00;98889.47;3056444;19;19936;-50
2022/09/27 04:44:00;;;;;;;;;;;;;;;12.76;100.00;98893.69;3056410;19;19919;-51
2022/09/27 04:45:02;;;;;;;;;;;;;;;12.76;100.00;98894.53;3055968;19;20604;-50
2022/09/27 04:46:06;;;;;;;;;;;;;;;12.79;100.00;98885.38;3056243;19;20307;-50
2022/09/27 04:47:08;;;;;;;;;;;;;;;12.81;100.00;98891.41;3056026;19;19955;-50
2022/09/27 04:48:13;;;;;;;;;;;;;;;12.81;100.00;98888.72;3056058;19;19926;-49
2022/09/27 04:49:15;;;;;;;;;;;;;;;12.83;100.00;98894.78;3055877;19;19923;-50
2022/09/27 04:50:21;;;;;;;;;;;;;;;12.83;100.00;98900.97;3056100;19;19927;-50
2022/09/27 04:51:35;;;;;;;;;;;;;;;12.84;100.00;98896.47;3055816;19;20267;-50
2022/09/27 04:52:40;;;;;;;;;;;;;;;12.83;100.00;98898.28;3056314;19;19919;-52
2022/09/27 04:53:43;;;;;;;;;;;;;;;12.84;100.00;98891.09;3055901;19;19927;-51
2022/09/27 04:54:48;;;;;;;;;;;;;;;12.85;100.00;98893.63;3056092;19;20354;-51
2022/09/27 04:55:52;;;;;;;;;;;;;;;12.87;100.00;98893.50;3055969;19;19922;-51
2022/09/27 04:56:56;;;;;;;;;;;;;;;12.88;100.00;98895.19;3056135;19;19922;-51
2022/09/27 04:58:00;;;;;;;;;;;;;;;12.91;100.00;98897.56;3056014;19;19985;-51
2022/09/27 04:59:05;;;;;;;;;;;;;;;12.91;100.00;98895.75;3056252;19;19941;-50
2022/09/27 05:00:12;;;;;;;;;;;;;;;12.92;100.00;98888.56;3055861;19;19935;-50
2022/09/27 05:01:19;;;;;;;;;;;;;;;12.93;100.00;98890.22;3056041;19;19915;-50
2022/09/27 05:02:32;;;;;;;;;;;;;;;12.95;100.00;98894.44;3056410;19;20404;-50
2022/09/27 05:04:12;;;;;;;;;;;;;;;12.98;100.00;98895.97;3054616;19;19978;-50
2022/09/27 05:05:18;;;;;;;;;;;;;;;13.00;100.00;98902.03;3054985;19;20351;-51
2022/09/27 05:06:23;;;;;;;;;;;;;;;13.01;100.00;98898.38;3055073;19;19961;-51
2022/09/27 05:07:26;;;;;;;;;;;;;;;13.04;100.00;98897.22;3055898;19;19923;-50
2022/09/27 05:08:36;;;;;;;;;;;;;;;13.06;100.00;98904.09;3056107;19;19919;-50
2022/09/27 05:10:00;;;;;;;;;;;;;;;13.07;100.00;98897.75;3054968;19;19927;-51
2022/09/27 05:11:03;;;;;;;;;;;;;;;13.09;100.00;98895.78;3055691;19;19918;-51
2022/09/27 05:12:08;;;;;;;;;;;;;;;13.11;100.00;98901.84;3055560;19;19944;-50
2022/09/27 05:13:20;;;;;;;;;;;;;;;13.13;100.00;98886.47;3056004;19;20360;-50
2022/09/27 05:14:22;;;;;;;;;;;;;;;13.14;100.00;98893.53;3055739;19;19919;-50
2022/09/27 05:15:46;;;;;;;;;;;;;;;13.13;100.00;98883.78;3055198;19;19919;-49
2022/09/27 05:17:13;;;;;;;;;;;;;;;13.12;100.00;98890.13;3056011;19;19919;-50
2022/09/27 05:18:38;;;;;;;;;;;;;;;13.09;100.00;98879.72;3054316;19;19923;-50
2022/09/27 05:19:58;;;;;;;;;;;;;;;13.06;100.00;98882.69;3056187;19;20015;-51
2022/09/27 05:21:23;;;;;;;;;;;;;;;13.05;100.00;98883.66;3054990;19;19952;-51
2022/09/27 05:22:25;;;;;;;;;;;;;;;13.02;100.00;98878.63;3055390;19;19919;-51
2022/09/27 05:23:29;;;;;;;;;;;;;;;13.03;100.00;98880.31;3055915;19;19918;-51
2022/09/27 05:24:32;;;;;;;;;;;;;;;13.02;100.00;98884.00;3055427;19;19927;-50
2022/09/27 05:25:37;;;;;;;;;;;;;;;13.02;100.00;98878.63;3055234;19;19922;-50
2022/09/27 05:26:45;;;;;;;;;;;;;;;13.04;100.00;98878.50;3055838;19;19936;-51
2022/09/27 05:27:48;;;;;;;;;;;;;;;13.05;100.00;98872.13;3055560;19;20067;-52
2022/09/27 05:28:53;;;;;;;;;;;;;;;13.06;100.00;98869.28;3055501;19;19923;-51
2022/09/27 05:29:55;;;;;;;;;;;;;;;13.07;100.00;98870.97;3055570;19;19929;-51
2022/09/27 05:31:10;;;;;;;;;;;;;;;13.10;100.00;98864.47;3055367;19;19944;-51
2022/09/27 05:32:12;;;;;;;;;;;;;;;13.12;100.00;98868.72;3055859;19;20255;-51
2022/09/27 05:33:17;;;;;;;;;;;;;;;13.12;100.00;98863.34;3055450;19;19982;-51
2022/09/27 05:34:22;;;;;;;;;;;;;;;13.14;100.00;98852.50;3055730;19;19978;-51
2022/09/27 05:35:39;;;;;;;;;;;;;;;13.15;100.00;98863.09;3054900;19;19949;-51
2022/09/27 05:36:46;;;;;;;;;;;;;;;13.17;100.00;98855.72;3055392;19;20008;-51
2022/09/27 05:37:58;;;;;;;;;;;;;;;13.20;100.00;98860.78;3055804;19;19915;-51
2022/09/27 05:39:03;;;;;;;;;;;;;;;13.24;100.00;98862.19;3055308;19;19919;-51
2022/09/27 05:40:08;;;;;;;;;;;;;;;13.25;100.00;98858.50;3055602;19;19914;-51
2022/09/27 05:41:33;;;;;;;;;;;;;;;13.30;100.00;98872.28;3055728;19;19919;-51
2022/09/27 05:42:38;;;;;;;;;;;;;;;13.31;100.00;98871.28;3055763;19;19991;-50
2022/09/27 05:43:45;;;;;;;;;;;;;;;13.33;100.00;98882.69;3055389;19;19934;-51
2022/09/27 05:44:47;;;;;;;;;;;;;;;13.33;100.00;98877.34;3055389;19;19947;-51
2022/09/27 05:45:52;;;;;;;;;;;;;;;13.32;100.00;98886.38;3055024;19;20334;-51
2022/09/27 05:46:55;;;;;;;;;;;;;;;13.32;100.00;98891.72;3055684;19;19923;-51
2022/09/27 05:48:00;;;;;;;;;;;;;;;13.31;100.00;98887.34;3054961;19;19959;-51
2022/09/27 05:49:04;;;;;;;;;;;;;;;13.31;100.00;98879.31;3055246;19;20018;-51
2022/09/27 05:50:09;;;;;;;;;;;;;;;13.32;100.00;98881.00;3054780;19;19919;-51
2022/09/27 05:51:15;;;;;;;;;;;;;;;13.32;100.00;98881.00;3055202;19;19922;-51
2022/09/27 05:52:18;;;;;;;;;;;;;;;13.33;100.00;98874.66;3055574;19;19919;-51
2022/09/27 05:53:26;;;;;;;;;;;;;;;13.36;100.00;98880.72;3055456;19;19925;-51
2022/09/27 05:54:29;;;;;;;;;;;;;;;13.38;100.00;98874.22;3055497;19;19922;-51
2022/09/27 05:55:34;;;;;;;;;;;;;;;13.41;100.00;98878.41;3055310;19;20039;-50
2022/09/27 05:56:38;;;;;;;;;;;;;;;13.43;100.00;98881.78;3054824;19;20036;-51
2022/09/27 05:58:02;;;;;;;;;;;;;;;13.44;100.00;98878.94;3055750;19;19930;-51
2022/09/27 05:59:13;;;;;;;;;;;;;;;13.47;100.00;98883.16;3055711;19;19948;-52
2022/09/27 06:00:40;;;;;;;;;;;;;;;13.47;100.00;98883.16;3054320;19;19940;-51
2022/09/27 06:02:05;;;;;;;;;;;;;;;13.46;100.00;98886.84;3055861;19;19933;-51